Time;durP1;ratioP1;P1;durP2;ratioP2;P2;SDS_P1;SDS_P2;PMS_P1;PMS_P2;Temp;Humidity;BMP_temperature;BMP_pressure;BME280_temperature;BME280_humidity;BME280_pressure;Samples;Min_cycle;Max_cycle;Signal;HPM_P1;HPM_P2
2023/08/30 00:00:57;;;;;;;4.68;2.83;;;;;;;;;;5111935;28;20377;-72
2023/08/30 00:03:23;;;;;;;5.63;3.13;;;;;;;;;;5113899;28;20026;-73
2023/08/30 00:05:49;;;;;;;7.07;3.70;;;;;;;;;;5113671;28;20528;-73
2023/08/30 00:08:18;;;;;;;6.00;3.85;;;;;;;;;;5114133;28;20473;-73
2023/08/30 00:10:44;;;;;;;8.65;3.88;;;;;;;;;;5113629;28;20139;-74
2023/08/30 00:13:10;;;;;;;6.53;3.60;;;;;;;;;;5113360;28;20024;-73
2023/08/30 00:15:36;;;;;;;7.05;3.28;;;;;;;;;;5113177;28;20028;-74
2023/08/30 00:18:02;;;;;;;4.32;2.95;;;;;;;;;;5113266;28;20024;-72
2023/08/30 00:20:28;;;;;;;5.35;3.05;;;;;;;;;;5113281;28;20031;-73
2023/08/30 00:22:54;;;;;;;5.18;3.00;;;;;;;;;;5113268;28;20028;-73
2023/08/30 00:25:20;;;;;;;8.27;3.13;;;;;;;;;;5112955;28;20023;-73
2023/08/30 00:27:46;;;;;;;5.30;3.40;;;;;;;;;;5113082;28;20031;-74
2023/08/30 00:30:12;;;;;;;8.90;3.65;;;;;;;;;;5113122;28;20023;-73
2023/08/30 00:32:38;;;;;;;11.93;3.20;;;;;;;;;;5112882;28;20039;-75
2023/08/30 00:35:05;;;;;;;8.55;3.67;;;;;;;;;;5112820;28;20035;-73
2023/08/30 00:37:31;;;;;;;9.00;3.67;;;;;;;;;;5112989;28;20023;-73
2023/08/30 00:39:57;;;;;;;6.55;3.20;;;;;;;;;;5113025;28;20102;-74
2023/08/30 00:42:22;;;;;;;7.13;3.47;;;;;;;;;;5112750;28;20023;-74
2023/08/30 00:44:49;;;;;;;9.13;3.63;;;;;;;;;;5112861;28;20028;-75
2023/08/30 00:47:16;;;;;;;5.50;3.13;;;;;;;;;;5112987;28;20102;-74
2023/08/30 00:49:42;;;;;;;5.20;3.20;;;;;;;;;;5112762;28;20050;-75
2023/08/30 00:52:09;;;;;;;5.47;3.22;;;;;;;;;;5112893;28;20038;-74
2023/08/30 00:54:35;;;;;;;9.25;3.67;;;;;;;;;;5112458;28;20476;-74
2023/08/30 00:57:02;;;;;;;6.18;3.33;;;;;;;;;;5112553;28;20024;-73
2023/08/30 00:59:27;;;;;;;7.43;3.65;;;;;;;;;;5112608;28;20023;-73
2023/08/30 01:01:54;;;;;;;7.60;4.05;;;;;;;;;;5112547;28;20045;-74
2023/08/30 01:04:21;;;;;;;5.82;3.40;;;;;;;;;;5112396;28;20019;-74
2023/08/30 01:06:48;;;;;;;8.40;3.97;;;;;;;;;;5112268;28;20016;-74
2023/08/30 01:09:14;;;;;;;8.50;4.05;;;;;;;;;;5112494;28;20509;-73
2023/08/30 01:11:44;;;;;;;10.20;3.53;;;;;;;;;;5112327;28;20031;-74
2023/08/30 01:14:14;;;;;;;6.05;3.50;;;;;;;;;;5112092;28;20024;-75
2023/08/30 01:16:42;;;;;;;5.43;3.20;;;;;;;;;;5112595;28;20124;-75
2023/08/30 01:19:22;;;;;;;6.30;3.60;;;;;;;;;;5112558;28;20047;-75
2023/08/30 01:22:03;;;;;;;5.38;3.35;;;;;;;;;;5112629;28;20030;-75
2023/08/30 01:24:44;;;;;;;9.13;3.75;;;;;;;;;;5112711;28;20027;-76
2023/08/30 01:27:11;;;;;;;10.95;4.00;;;;;;;;;;5112706;28;20028;-76
2023/08/30 01:29:43;;;;;;;8.00;3.67;;;;;;;;;;5111972;28;20042;-75
2023/08/30 01:32:10;;;;;;;11.90;4.18;;;;;;;;;;5112985;28;20028;-75
2023/08/30 01:34:37;;;;;;;5.03;3.42;;;;;;;;;;5112771;28;20035;-76
2023/08/30 01:37:04;;;;;;;5.97;3.33;;;;;;;;;;5112919;28;20012;-75
2023/08/30 01:39:30;;;;;;;4.82;3.00;;;;;;;;;;5112812;28;20077;-75
2023/08/30 01:41:58;;;;;;;4.93;2.90;;;;;;;;;;5113185;28;20518;-75
2023/08/30 01:44:27;;;;;;;5.00;2.95;;;;;;;;;;5113068;28;20024;-75
2023/08/30 01:46:53;;;;;;;9.50;3.33;;;;;;;;;;5113556;28;20477;-76
2023/08/30 01:49:19;;;;;;;7.15;3.00;;;;;;;;;;5113303;28;20102;-76
2023/08/30 01:51:45;;;;;;;6.53;3.13;;;;;;;;;;5113254;28;20024;-76
2023/08/30 01:54:15;;;;;;;5.00;3.13;;;;;;;;;;5113023;28;20111;-76
2023/08/30 01:56:41;;;;;;;6.20;3.30;;;;;;;;;;5095258;28;20026;-74
2023/08/30 01:59:07;;;;;;;5.93;3.28;;;;;;;;;;5113364;28;20055;-76
2023/08/30 02:01:33;;;;;;;5.93;3.13;;;;;;;;;;5112644;28;20026;-76
2023/08/30 02:04:00;;;;;;;4.55;3.08;;;;;;;;;;5113180;28;20030;-77
2023/08/30 02:06:31;;;;;;;5.38;3.40;;;;;;;;;;5113175;28;20048;-75
2023/08/30 02:09:02;;;;;;;6.82;3.95;;;;;;;;;;5113636;28;20173;-75
2023/08/30 02:11:30;;;;;;;9.60;4.10;;;;;;;;;;5113268;28;20229;-75
2023/08/30 02:13:58;;;;;;;6.47;4.18;;;;;;;;;;5112596;28;20035;-75
2023/08/30 02:16:26;;;;;;;8.18;3.97;;;;;;;;;;5111969;28;20023;-75
2023/08/30 02:18:52;;;;;;;5.15;3.72;;;;;;;;;;5114837;28;20027;-75
2023/08/30 02:21:19;;;;;;;7.03;3.22;;;;;;;;;;5115592;28;20030;-74
2023/08/30 02:23:45;;;;;;;7.38;3.75;;;;;;;;;;5115632;28;20491;-74
2023/08/30 02:26:10;;;;;;;7.78;3.42;;;;;;;;;;5116658;28;20026;-74
2023/08/30 02:28:38;;;;;;;7.80;3.42;;;;;;;;;;5115771;28;20051;-74
2023/08/30 02:31:04;;;;;;;6.60;3.80;;;;;;;;;;5115662;28;20027;-73
2023/08/30 02:33:30;;;;;;;8.07;5.03;;;;;;;;;;5119106;28;20582;-73
2023/08/30 02:35:56;;;;;;;8.38;3.60;;;;;;;;;;5116722;28;20131;-74
2023/08/30 02:38:22;;;;;;;9.18;4.20;;;;;;;;;;5115364;28;20020;-74
2023/08/30 02:40:48;;;;;;;5.18;3.28;;;;;;;;;;5115414;28;20077;-74
2023/08/30 02:43:14;;;;;;;6.05;3.33;;;;;;;;;;5096978;28;20443;-74
2023/08/30 02:45:40;;;;;;;6.65;3.00;;;;;;;;;;5115276;28;20434;-75
2023/08/30 02:48:06;;;;;;;6.53;3.42;;;;;;;;;;5115032;28;20485;-75
2023/08/30 02:50:32;;;;;;;9.02;4.53;;;;;;;;;;5115060;28;20027;-74
2023/08/30 02:52:58;;;;;;;7.88;3.88;;;;;;;;;;5114942;28;20039;-74
2023/08/30 02:55:24;;;;;;;7.45;3.90;;;;;;;;;;5114859;28;20035;-74
2023/08/30 02:57:50;;;;;;;10.82;5.90;;;;;;;;;;5114823;28;20104;-74
2023/08/30 03:00:16;;;;;;;12.20;4.32;;;;;;;;;;5114457;28;20041;-74
2023/08/30 03:02:42;;;;;;;7.20;4.20;;;;;;;;;;5114599;28;20030;-75
2023/08/30 03:05:08;;;;;;;7.50;3.95;;;;;;;;;;5114746;28;20019;-74
2023/08/30 03:07:34;;;;;;;7.72;4.57;;;;;;;;;;5114603;28;20027;-74
2023/08/30 03:10:00;;;;;;;6.57;4.40;;;;;;;;;;5114881;28;20046;-75
2023/08/30 03:12:26;;;;;;;10.98;4.63;;;;;;;;;;5114394;28;20088;-74
2023/08/30 03:14:52;;;;;;;7.93;4.70;;;;;;;;;;5113009;27;20062;-77
2023/08/30 03:17:19;;;;;;;8.10;4.63;;;;;;;;;;5097467;27;20030;-77
2023/08/30 03:19:44;;;;;;;7.82;4.85;;;;;;;;;;5114162;27;20392;-75
2023/08/30 03:22:10;;;;;;;6.78;4.28;;;;;;;;;;5113687;28;20106;-75
2023/08/30 03:24:36;;;;;;;7.90;4.40;;;;;;;;;;5114116;27;20420;-75
2023/08/30 03:27:02;;;;;;;5.97;4.30;;;;;;;;;;5115180;28;20176;-75
2023/08/30 03:29:29;;;;;;;10.02;5.30;;;;;;;;;;5115048;27;20036;-75
2023/08/30 03:31:55;;;;;;;7.30;4.93;;;;;;;;;;5114837;28;20016;-76
2023/08/30 03:34:21;;;;;;;8.63;5.20;;;;;;;;;;5120045;27;20091;-76
2023/08/30 03:36:53;;;;;;;7.00;4.70;;;;;;;;;;5116335;28;20024;-75
2023/08/30 03:39:19;;;;;;;8.18;4.60;;;;;;;;;;5129149;27;20023;-75
2023/08/30 03:41:45;;;;;;;7.10;5.07;;;;;;;;;;5115693;28;20509;-75
2023/08/30 03:44:11;;;;;;;10.90;6.45;;;;;;;;;;5120652;27;20016;-76
2023/08/30 03:46:37;;;;;;;10.68;7.20;;;;;;;;;;5106868;27;20020;-75
2023/08/30 03:49:04;;;;;;;13.93;6.57;;;;;;;;;;5123460;27;20042;-76
2023/08/30 03:51:30;;;;;;;10.65;6.38;;;;;;;;;;5120754;27;20106;-75
2023/08/30 03:53:56;;;;;;;11.02;6.43;;;;;;;;;;5118714;27;20032;-76
2023/08/30 03:56:22;;;;;;;14.90;8.40;;;;;;;;;;5099439;28;20016;-75
2023/08/30 03:58:48;;;;;;;17.40;8.07;;;;;;;;;;5100194;28;20028;-75
2023/08/30 04:01:14;;;;;;;14.40;7.07;;;;;;;;;;5101997;28;20043;-76
2023/08/30 04:03:40;;;;;;;15.27;7.22;;;;;;;;;;5081014;28;20028;-75
2023/08/30 04:06:06;;;;;;;13.10;8.18;;;;;;;;;;5096527;28;20086;-74
2023/08/30 04:08:33;;;;;;;14.35;7.63;;;;;;;;;;5078420;28;20028;-76
2023/08/30 04:10:59;;;;;;;11.82;7.28;;;;;;;;;;5096841;28;20024;-75
2023/08/30 04:13:25;;;;;;;12.48;7.30;;;;;;;;;;5079222;28;20032;-75
2023/08/30 04:15:51;;;;;;;13.95;8.40;;;;;;;;;;5094915;28;20024;-74
2023/08/30 04:18:17;;;;;;;13.57;7.90;;;;;;;;;;5076999;28;20024;-74
2023/08/30 04:20:45;;;;;;;11.35;7.25;;;;;;;;;;5095931;28;20039;-76
2023/08/30 04:23:11;;;;;;;15.68;7.95;;;;;;;;;;5097582;28;20386;-74
2023/08/30 04:25:37;;;;;;;17.27;8.38;;;;;;;;;;5097499;28;20031;-75
2023/08/30 04:28:03;;;;;;;14.50;7.75;;;;;;;;;;5077677;28;20034;-74
2023/08/30 04:30:29;;;;;;;13.20;7.35;;;;;;;;;;5095931;28;20051;-75
2023/08/30 04:32:55;;;;;;;11.20;6.88;;;;;;;;;;5095236;28;20035;-75
2023/08/30 04:35:21;;;;;;;11.85;6.43;;;;;;;;;;5096505;28;20032;-74
2023/08/30 04:37:48;;;;;;;11.15;6.65;;;;;;;;;;5098427;28;20535;-74
2023/08/30 04:40:14;;;;;;;13.05;7.35;;;;;;;;;;5092891;28;20032;-72
2023/08/30 04:42:40;;;;;;;10.00;6.53;;;;;;;;;;5092054;28;20091;-73
2023/08/30 04:45:07;;;;;;;11.80;7.82;;;;;;;;;;5093829;28;20027;-74
2023/08/30 04:47:33;;;;;;;10.85;7.70;;;;;;;;;;5097663;28;20100;-75
2023/08/30 04:49:59;;;;;;;14.32;9.35;;;;;;;;;;5096560;28;20039;-76
2023/08/30 04:52:25;;;;;;;21.92;9.15;;;;;;;;;;5098243;28;20028;-75
2023/08/30 04:54:52;;;;;;;13.18;8.80;;;;;;;;;;5098190;28;20470;-75
2023/08/30 04:57:18;;;;;;;15.13;8.45;;;;;;;;;;5097829;28;20377;-75
2023/08/30 04:59:44;;;;;;;19.63;9.20;;;;;;;;;;5097240;28;20020;-74
2023/08/30 05:02:10;;;;;;;13.57;8.38;;;;;;;;;;5097603;28;20031;-75
2023/08/30 05:04:36;;;;;;;13.13;7.53;;;;;;;;;;5098887;28;20032;-75
2023/08/30 05:07:02;;;;;;;17.52;8.18;;;;;;;;;;5098831;28;20393;-73
2023/08/30 05:09:29;;;;;;;13.98;8.68;;;;;;;;;;5098335;28;20032;-75
2023/08/30 05:11:55;;;;;;;17.35;9.18;;;;;;;;;;5095882;28;20042;-75
2023/08/30 05:14:21;;;;;;;12.43;8.15;;;;;;;;;;5096162;28;20118;-75
2023/08/30 05:16:47;;;;;;;17.17;8.68;;;;;;;;;;5096270;28;20022;-75
2023/08/30 05:19:13;;;;;;;11.73;7.93;;;;;;;;;;5094521;28;20145;-74
2023/08/30 05:21:39;;;;;;;17.73;8.75;;;;;;;;;;5112079;28;20052;-75
2023/08/30 05:24:08;;;;;;;14.80;8.75;;;;;;;;;;5093864;28;20031;-75
2023/08/30 05:26:34;;;;;;;13.38;7.88;;;;;;;;;;5112159;28;20067;-73
2023/08/30 05:29:00;;;;;;;14.27;7.85;;;;;;;;;;5110475;28;20385;-76
2023/08/30 05:31:26;;;;;;;12.40;7.63;;;;;;;;;;5111735;28;20020;-76
2023/08/30 05:33:52;;;;;;;14.02;7.63;;;;;;;;;;5111496;28;20370;-75
2023/08/30 05:36:18;;;;;;;15.15;7.53;;;;;;;;;;5110723;28;20039;-74
2023/08/30 05:38:44;;;;;;;13.75;6.90;;;;;;;;;;5111555;28;20123;-73
2023/08/30 05:41:10;;;;;;;15.70;7.95;;;;;;;;;;5111939;28;20024;-76
2023/08/30 05:43:36;;;;;;;16.45;7.43;;;;;;;;;;5109742;28;20024;-75
2023/08/30 05:46:02;;;;;;;14.57;6.85;;;;;;;;;;5111578;28;20019;-73
2023/08/30 05:48:29;;;;;;;14.32;7.20;;;;;;;;;;5111739;28;20058;-74
2023/08/30 05:50:55;;;;;;;14.00;8.00;;;;;;;;;;5111666;28;20038;-76
2023/08/30 05:53:21;;;;;;;17.77;8.75;;;;;;;;;;5112930;28;20024;-74
2023/08/30 05:55:47;;;;;;;13.90;7.70;;;;;;;;;;5115412;28;20558;-75
2023/08/30 05:58:15;;;;;;;15.10;7.75;;;;;;;;;;5115553;28;20047;-75
2023/08/30 06:00:40;;;;;;;19.58;11.27;;;;;;;;;;5114684;28;20381;-76
2023/08/30 06:03:06;;;;;;;14.18;8.50;;;;;;;;;;5114607;28;20069;-76
2023/08/30 06:05:33;;;;;;;15.68;8.50;;;;;;;;;;5115760;28;20472;-77
2023/08/30 06:07:59;;;;;;;15.18;8.13;;;;;;;;;;5115410;28;20027;-72
2023/08/30 06:10:25;;;;;;;12.20;7.32;;;;;;;;;;5113501;28;20554;-76
2023/08/30 06:12:51;;;;;;;15.65;7.18;;;;;;;;;;5114827;28;20032;-75
2023/08/30 06:15:17;;;;;;;15.07;7.32;;;;;;;;;;5115037;28;20152;-76
2023/08/30 06:17:43;;;;;;;19.00;7.18;;;;;;;;;;5116871;28;20345;-76
2023/08/30 06:20:09;;;;;;;13.35;7.22;;;;;;;;;;5115031;28;20598;-74
2023/08/30 06:22:35;;;;;;;15.27;8.63;;;;;;;;;;5114487;28;20318;-73
2023/08/30 06:25:02;;;;;;;14.20;7.47;;;;;;;;;;5115345;28;20022;-78
2023/08/30 06:27:30;;;;;;;12.05;7.03;;;;;;;;;;5112477;28;20338;-76
2023/08/30 06:29:56;;;;;;;12.93;7.03;;;;;;;;;;5097127;28;20162;-74
2023/08/30 06:32:22;;;;;;;9.60;6.25;;;;;;;;;;5112874;28;20039;-75
2023/08/30 06:34:48;;;;;;;12.70;7.07;;;;;;;;;;5114836;28;20019;-73
2023/08/30 06:37:14;;;;;;;9.80;6.50;;;;;;;;;;5118723;28;20102;-75
2023/08/30 06:39:40;;;;;;;13.43;7.30;;;;;;;;;;5115656;28;20342;-74
2023/08/30 06:42:06;;;;;;;14.90;8.32;;;;;;;;;;5112615;28;20068;-74
2023/08/30 06:44:32;;;;;;;17.63;8.10;;;;;;;;;;5115028;28;20474;-72
2023/08/30 06:46:58;;;;;;;15.63;8.10;;;;;;;;;;5114604;28;20031;-74
2023/08/30 06:49:24;;;;;;;16.88;8.98;;;;;;;;;;5114401;28;20561;-76
2023/08/30 06:51:50;;;;;;;12.45;8.27;;;;;;;;;;5112068;28;20088;-75
2023/08/30 06:54:16;;;;;;;15.25;8.10;;;;;;;;;;5114562;28;20023;-74
2023/08/30 06:56:46;;;;;;;15.63;8.63;;;;;;;;;;5114380;28;20028;-75
2023/08/30 06:59:12;;;;;;;15.30;8.88;;;;;;;;;;5114543;28;20019;-76
2023/08/30 07:01:38;;;;;;;14.80;8.95;;;;;;;;;;5115243;28;20504;-75
2023/08/30 07:04:04;;;;;;;14.55;8.10;;;;;;;;;;5113653;28;20042;-75
2023/08/30 07:06:30;;;;;;;16.33;8.57;;;;;;;;;;5114149;28;20047;-76
2023/08/30 07:08:56;;;;;;;20.52;9.27;;;;;;;;;;5114030;28;20027;-74
2023/08/30 07:11:22;;;;;;;16.08;9.70;;;;;;;;;;5114059;28;20028;-75
2023/08/30 07:13:48;;;;;;;12.65;8.23;;;;;;;;;;5113577;28;20099;-74
2023/08/30 07:16:15;;;;;;;15.80;9.35;;;;;;;;;;5114887;28;20385;-74
2023/08/30 07:18:41;;;;;;;14.60;8.70;;;;;;;;;;5114171;28;20024;-72
2023/08/30 07:21:06;;;;;;;14.85;8.55;;;;;;;;;;5114146;28;20034;-72
2023/08/30 07:23:32;;;;;;;18.88;10.43;;;;;;;;;;5113852;28;20102;-74
2023/08/30 07:25:58;;;;;;;13.30;9.90;;;;;;;;;;5113951;28;20020;-74
2023/08/30 07:28:24;;;;;;;16.75;9.20;;;;;;;;;;5114018;28;20519;-72
2023/08/30 07:30:50;;;;;;;14.50;10.30;;;;;;;;;;5113953;28;20028;-74
2023/08/30 07:33:16;;;;;;;15.27;9.57;;;;;;;;;;5114099;28;20396;-74
2023/08/30 07:35:42;;;;;;;17.23;9.70;;;;;;;;;;5113629;28;20063;-75
2023/08/30 07:38:08;;;;;;;15.07;10.02;;;;;;;;;;5114759;28;20031;-78
2023/08/30 07:40:34;;;;;;;17.15;10.30;;;;;;;;;;5114988;28;20020;-75
2023/08/30 07:43:00;;;;;;;22.58;15.00;;;;;;;;;;5114225;28;20430;-74
2023/08/30 07:45:26;;;;;;;17.80;13.25;;;;;;;;;;5114398;28;20024;-74
2023/08/30 07:47:52;;;;;;;18.83;12.77;;;;;;;;;;5114443;28;20149;-75
2023/08/30 07:50:18;;;;;;;16.70;10.88;;;;;;;;;;5114127;28;20023;-74
2023/08/30 07:52:45;;;;;;;20.13;11.93;;;;;;;;;;5113668;28;20026;-75
2023/08/30 07:55:11;;;;;;;17.92;12.45;;;;;;;;;;5113592;28;20030;-76
2023/08/30 07:57:37;;;;;;;18.30;11.48;;;;;;;;;;5113316;28;20015;-75
2023/08/30 08:00:03;;;;;;;17.42;11.68;;;;;;;;;;5113292;28;20020;-75
2023/08/30 08:02:29;;;;;;;18.98;10.68;;;;;;;;;;5113051;28;20023;-75
2023/08/30 08:04:55;;;;;;;17.88;9.95;;;;;;;;;;5113093;28;20027;-74
2023/08/30 08:07:21;;;;;;;14.88;10.30;;;;;;;;;;5095133;28;20034;-75
2023/08/30 08:09:47;;;;;;;19.23;11.52;;;;;;;;;;5113270;28;20034;-74
2023/08/30 08:12:13;;;;;;;17.02;9.35;;;;;;;;;;5113081;28;20046;-74
2023/08/30 08:14:39;;;;;;;15.50;9.80;;;;;;;;;;5112779;28;20426;-76
2023/08/30 08:17:05;;;;;;;15.77;9.85;;;;;;;;;;5112696;28;20019;-75
2023/08/30 08:19:31;;;;;;;18.20;10.00;;;;;;;;;;5113157;28;20015;-75
2023/08/30 08:21:57;;;;;;;16.90;9.52;;;;;;;;;;5112208;28;20125;-74
2023/08/30 08:24:23;;;;;;;15.30;8.57;;;;;;;;;;5112718;28;20020;-74
2023/08/30 08:26:49;;;;;;;15.25;8.15;;;;;;;;;;5113182;28;20046;-74
2023/08/30 08:29:15;;;;;;;19.70;9.00;;;;;;;;;;5112688;28;20472;-74
2023/08/30 08:31:41;;;;;;;18.13;9.10;;;;;;;;;;5112946;28;20020;-77
2023/08/30 08:34:11;;;;;;;20.95;8.90;;;;;;;;;;5112608;28;20103;-75
2023/08/30 08:36:41;;;;;;;11.25;6.97;;;;;;;;;;5112619;28;20392;-73
2023/08/30 08:39:09;;;;;;;16.52;7.70;;;;;;;;;;5112409;28;20020;-73
2023/08/30 08:41:44;;;;;;;14.40;8.70;;;;;;;;;;5112640;28;20020;-74
2023/08/30 08:44:11;;;;;;;18.42;9.32;;;;;;;;;;5112669;28;20069;-74
2023/08/30 08:46:38;;;;;;;13.00;7.65;;;;;;;;;;5112779;28;20027;-75
2023/08/30 08:49:10;;;;;;;13.85;7.93;;;;;;;;;;5112619;28;20392;-74
2023/08/30 08:51:36;;;;;;;13.50;7.55;;;;;;;;;;5112700;28;20031;-74
2023/08/30 08:54:03;;;;;;;16.02;8.32;;;;;;;;;;5112055;28;20027;-73
2023/08/30 08:56:31;;;;;;;13.35;7.32;;;;;;;;;;5112256;28;20027;-74
2023/08/30 08:58:57;;;;;;;15.95;8.63;;;;;;;;;;5112169;28;20102;-74
2023/08/30 09:01:23;;;;;;;16.52;8.68;;;;;;;;;;5112391;28;20503;-74
2023/08/30 09:03:50;;;;;;;14.10;9.30;;;;;;;;;;5111982;28;20027;-72
2023/08/30 09:06:17;;;;;;;19.30;10.27;;;;;;;;;;5112393;28;20032;-73
2023/08/30 09:08:43;;;;;;;26.17;9.82;;;;;;;;;;5112449;28;20446;-74
2023/08/30 09:11:09;;;;;;;21.38;12.30;;;;;;;;;;5112130;28;20034;-75
2023/08/30 09:13:35;;;;;;;16.85;9.07;;;;;;;;;;5111798;28;20035;-74
2023/08/30 09:16:02;;;;;;;14.88;7.70;;;;;;;;;;5112500;28;20038;-73
2023/08/30 09:18:28;;;;;;;19.05;7.50;;;;;;;;;;5112952;28;20096;-73
2023/08/30 09:21:15;;;;;;;17.77;7.40;;;;;;;;;;5113028;28;20039;-73
2023/08/30 09:23:41;;;;;;;12.80;6.70;;;;;;;;;;5112669;28;20107;-73
2023/08/30 09:26:07;;;;;;;10.45;5.82;;;;;;;;;;5112847;28;20081;-74
2023/08/30 09:28:41;;;;;;;13.55;6.22;;;;;;;;;;5112778;28;20068;-74
2023/08/30 09:31:07;;;;;;;19.58;6.38;;;;;;;;;;5113426;28;20032;-75
2023/08/30 09:33:34;;;;;;;12.13;6.40;;;;;;;;;;5115759;28;20114;-73
2023/08/30 09:36:00;;;;;;;9.90;5.13;;;;;;;;;;5115041;28;20024;-72
2023/08/30 09:38:26;;;;;;;9.35;5.07;;;;;;;;;;5115457;28;20031;-71
2023/08/30 09:40:53;;;;;;;7.78;4.43;;;;;;;;;;5116058;28;20024;-73
2023/08/30 09:43:23;;;;;;;8.82;4.10;;;;;;;;;;5131184;28;20028;-73
2023/08/30 09:45:50;;;;;;;10.57;5.95;;;;;;;;;;5123555;28;20028;-73
2023/08/30 09:48:16;;;;;;;12.82;4.65;;;;;;;;;;5112598;28;20028;-74
2023/08/30 09:50:42;;;;;;;9.18;5.07;;;;;;;;;;5112050;28;20527;-73
2023/08/30 09:53:09;;;;;;;10.57;5.57;;;;;;;;;;5111647;28;20031;-73
2023/08/30 09:55:36;;;;;;;10.38;4.18;;;;;;;;;;5111780;28;20059;-72
2023/08/30 09:58:04;;;;;;;9.43;4.82;;;;;;;;;;5112031;28;20098;-73
2023/08/30 10:00:30;;;;;;;9.05;4.93;;;;;;;;;;5111906;28;20024;-74
2023/08/30 10:02:58;;;;;;;12.27;4.88;;;;;;;;;;5112212;28;20012;-73
2023/08/30 10:05:25;;;;;;;11.38;4.93;;;;;;;;;;5111799;28;20477;-78
2023/08/30 10:07:52;;;;;;;16.20;5.47;;;;;;;;;;5112488;28;20119;-79
2023/08/30 10:10:18;;;;;;;9.93;5.43;;;;;;;;;;5112882;28;20384;-75
2023/08/30 10:12:44;;;;;;;8.77;5.15;;;;;;;;;;5112261;28;20057;-75
2023/08/30 10:15:10;;;;;;;12.35;5.05;;;;;;;;;;5111967;28;20038;-74
2023/08/30 10:17:38;;;;;;;10.90;5.28;;;;;;;;;;5112228;28;20377;-74
2023/08/30 10:20:07;;;;;;;9.18;5.13;;;;;;;;;;5093933;28;20019;-74
2023/08/30 10:22:36;;;;;;;12.65;4.47;;;;;;;;;;5111642;28;20016;-76
2023/08/30 10:25:05;;;;;;;13.70;6.55;;;;;;;;;;5111607;28;20073;-76
2023/08/30 10:27:35;;;;;;;14.35;6.05;;;;;;;;;;5112451;28;20032;-77
2023/08/30 10:30:03;;;;;;;8.13;4.90;;;;;;;;;;5111869;28;20023;-75
2023/08/30 10:32:30;;;;;;;15.52;5.40;;;;;;;;;;5110990;28;20072;-75
2023/08/30 10:34:56;;;;;;;10.77;5.55;;;;;;;;;;5111382;28;20043;-76
2023/08/30 10:37:27;;;;;;;10.18;5.65;;;;;;;;;;5111473;28;20469;-75
2023/08/30 10:39:53;;;;;;;12.18;5.35;;;;;;;;;;5114287;28;20035;-76
2023/08/30 10:42:23;;;;;;;14.10;6.40;;;;;;;;;;5115020;28;20481;-75
2023/08/30 10:44:49;;;;;;;11.23;5.70;;;;;;;;;;5097213;28;20039;-75
2023/08/30 10:47:38;;;;;;;12.00;5.32;;;;;;;;;;5115210;28;20039;-75
2023/08/30 10:50:06;;;;;;;9.55;5.03;;;;;;;;;;5101962;28;20036;-73
2023/08/30 10:52:32;;;;;;;11.32;5.55;;;;;;;;;;5114557;28;20030;-73
2023/08/30 10:55:08;;;;;;;14.48;5.78;;;;;;;;;;5115471;28;20538;-73
2023/08/30 10:57:34;;;;;;;13.43;7.03;;;;;;;;;;5114822;28;20122;-76
2023/08/30 11:00:10;;;;;;;9.85;5.15;;;;;;;;;;5114585;28;20023;-74
2023/08/30 11:02:37;;;;;;;10.07;5.38;;;;;;;;;;5114300;28;20065;-74
2023/08/30 11:05:04;;;;;;;14.05;7.63;;;;;;;;;;5096813;28;20413;-76
2023/08/30 11:07:30;;;;;;;13.98;7.40;;;;;;;;;;5115081;28;20431;-75
2023/08/30 11:09:56;;;;;;;9.90;5.72;;;;;;;;;;5114961;28;20536;-74
2023/08/30 11:12:22;;;;;;;9.35;5.75;;;;;;;;;;5115403;28;20484;-75
2023/08/30 11:14:48;;;;;;;9.57;4.97;;;;;;;;;;5115480;28;20036;-76
2023/08/30 11:17:17;;;;;;;7.85;4.43;;;;;;;;;;5114614;28;20037;-75
2023/08/30 11:19:43;;;;;;;11.10;5.60;;;;;;;;;;5115158;28;20470;-74
2023/08/30 11:22:09;;;;;;;9.50;4.70;;;;;;;;;;5114252;28;20019;-74
2023/08/30 11:24:35;;;;;;;14.02;6.13;;;;;;;;;;5114273;28;20023;-74
2023/08/30 11:27:01;;;;;;;13.82;5.65;;;;;;;;;;5114293;28;20358;-75
2023/08/30 11:29:27;;;;;;;14.07;5.38;;;;;;;;;;5114447;28;20023;-75
2023/08/30 11:31:53;;;;;;;15.30;6.35;;;;;;;;;;5114163;28;20110;-75
2023/08/30 11:34:22;;;;;;;10.68;5.82;;;;;;;;;;5113880;28;20101;-74
2023/08/30 11:36:50;;;;;;;11.82;5.43;;;;;;;;;;5114004;28;20476;-74
2023/08/30 11:39:16;;;;;;;14.05;6.28;;;;;;;;;;5114629;28;20048;-74
2023/08/30 11:41:42;;;;;;;12.05;5.80;;;;;;;;;;5113791;28;20019;-74
2023/08/30 11:44:09;;;;;;;15.18;6.57;;;;;;;;;;5113540;28;20027;-74
2023/08/30 11:46:35;;;;;;;12.15;6.40;;;;;;;;;;5113783;28;20031;-74
2023/08/30 11:49:02;;;;;;;13.88;5.68;;;;;;;;;;5113787;28;20058;-73
2023/08/30 11:51:28;;;;;;;12.18;6.93;;;;;;;;;;5113978;28;20369;-74
2023/08/30 11:53:55;;;;;;;12.85;6.18;;;;;;;;;;5114222;28;20026;-74
2023/08/30 11:56:21;;;;;;;11.52;6.47;;;;;;;;;;5115598;28;20043;-74
2023/08/30 11:58:47;;;;;;;7.47;5.03;;;;;;;;;;5114406;28;20466;-75
2023/08/30 12:01:13;;;;;;;8.98;5.15;;;;;;;;;;5113759;28;20483;-74
2023/08/30 12:03:39;;;;;;;12.07;5.75;;;;;;;;;;5113565;28;20023;-74
2023/08/30 12:06:10;;;;;;;9.68;5.75;;;;;;;;;;5113999;28;20055;-74
2023/08/30 12:08:36;;;;;;;10.18;5.97;;;;;;;;;;5113467;28;20035;-74
2023/08/30 12:11:02;;;;;;;8.80;5.20;;;;;;;;;;5113691;28;20034;-73
2023/08/30 12:13:29;;;;;;;9.25;5.22;;;;;;;;;;5112847;28;20019;-75
2023/08/30 12:15:56;;;;;;;9.00;4.97;;;;;;;;;;5113664;28;20420;-73
2023/08/30 12:18:23;;;;;;;10.73;6.47;;;;;;;;;;5113140;28;20099;-74
2023/08/30 12:20:53;;;;;;;14.15;6.18;;;;;;;;;;5113699;28;20019;-74
2023/08/30 12:23:20;;;;;;;13.95;5.78;;;;;;;;;;5096050;28;20019;-74
2023/08/30 12:25:56;;;;;;;10.57;5.63;;;;;;;;;;5113814;28;20027;-73
2023/08/30 12:28:22;;;;;;;11.73;6.00;;;;;;;;;;5113738;28;20024;-73
2023/08/30 12:30:48;;;;;;;7.47;5.13;;;;;;;;;;5121915;28;20023;-74
2023/08/30 12:33:17;;;;;;;10.98;5.50;;;;;;;;;;5123142;28;20126;-73
2023/08/30 12:35:43;;;;;;;9.55;5.30;;;;;;;;;;5120983;28;20366;-75
2023/08/30 12:38:10;;;;;;;12.32;5.88;;;;;;;;;;5113714;28;20080;-75
2023/08/30 12:40:36;;;;;;;10.02;4.05;;;;;;;;;;5113997;28;20061;-76
2023/08/30 12:43:02;;;;;;;13.02;5.85;;;;;;;;;;5114509;28;20329;-73
2023/08/30 12:45:28;;;;;;;14.13;6.57;;;;;;;;;;5113705;28;20027;-74
2023/08/30 12:47:55;;;;;;;9.32;4.85;;;;;;;;;;5114445;28;20035;-74
2023/08/30 12:50:21;;;;;;;13.43;6.88;;;;;;;;;;5112301;28;20044;-73
2023/08/30 12:52:47;;;;;;;9.80;5.35;;;;;;;;;;5115503;28;20028;-74
2023/08/30 12:55:15;;;;;;;12.18;6.25;;;;;;;;;;5115846;28;20561;-75
2023/08/30 12:57:41;;;;;;;11.07;5.97;;;;;;;;;;5110630;28;20063;-74
2023/08/30 13:00:07;;;;;;;9.15;5.78;;;;;;;;;;5112454;28;20019;-75
2023/08/30 13:02:33;;;;;;;12.48;5.00;;;;;;;;;;5111223;28;20046;-75
2023/08/30 13:04:59;;;;;;;10.65;6.30;;;;;;;;;;5110584;28;20024;-75
2023/08/30 13:07:25;;;;;;;8.52;5.70;;;;;;;;;;5111762;28;20135;-73
2023/08/30 13:09:51;;;;;;;11.00;5.13;;;;;;;;;;5111985;28;20422;-76
2023/08/30 13:12:17;;;;;;;10.13;4.85;;;;;;;;;;5111536;28;20106;-73
2023/08/30 13:14:43;;;;;;;9.77;5.55;;;;;;;;;;5109980;28;20035;-74
2023/08/30 13:17:09;;;;;;;16.70;5.45;;;;;;;;;;5111586;28;20020;-74
2023/08/30 13:19:35;;;;;;;12.60;5.82;;;;;;;;;;5111366;28;20031;-75
2023/08/30 13:22:01;;;;;;;8.65;4.95;;;;;;;;;;5111168;28;20613;-74
2023/08/30 13:24:27;;;;;;;7.57;5.03;;;;;;;;;;5110999;28;20093;-74
2023/08/30 13:26:53;;;;;;;7.90;4.20;;;;;;;;;;5112558;28;20027;-74
2023/08/30 13:29:19;;;;;;;8.02;4.10;;;;;;;;;;5112341;28;20031;-74
2023/08/30 13:31:45;;;;;;;7.07;4.03;;;;;;;;;;5109950;28;20094;-75
2023/08/30 13:34:11;;;;;;;8.23;4.60;;;;;;;;;;5112563;28;20028;-73
2023/08/30 13:36:39;;;;;;;8.02;4.30;;;;;;;;;;5112037;28;20422;-74
2023/08/30 13:39:05;;;;;;;9.73;4.50;;;;;;;;;;5110340;28;20039;-74
2023/08/30 13:41:31;;;;;;;7.32;4.40;;;;;;;;;;5112138;28;20016;-74
2023/08/30 13:43:57;;;;;;;9.10;4.63;;;;;;;;;;5111875;28;20020;-76
2023/08/30 13:46:23;;;;;;;8.35;4.68;;;;;;;;;;5111833;28;20024;-73
2023/08/30 13:48:49;;;;;;;9.45;4.15;;;;;;;;;;5110696;28;20039;-73
2023/08/30 13:51:15;;;;;;;9.40;4.53;;;;;;;;;;5112000;28;20031;-74
2023/08/30 13:53:41;;;;;;;8.98;3.95;;;;;;;;;;5111122;28;20031;-73
2023/08/30 13:56:07;;;;;;;8.15;4.82;;;;;;;;;;5110643;28;20020;-74
2023/08/30 13:58:33;;;;;;;10.25;4.65;;;;;;;;;;5111674;28;20102;-74
2023/08/30 14:00:59;;;;;;;8.93;4.53;;;;;;;;;;5111986;28;20020;-73
2023/08/30 14:03:25;;;;;;;18.73;8.98;;;;;;;;;;5111420;28;20020;-74
2023/08/30 14:05:51;;;;;;;11.38;4.95;;;;;;;;;;5111729;28;20072;-75
2023/08/30 14:08:18;;;;;;;9.85;4.82;;;;;;;;;;5112528;28;20058;-72
2023/08/30 14:10:44;;;;;;;7.65;4.35;;;;;;;;;;5112259;28;20032;-77
2023/08/30 14:13:10;;;;;;;13.60;4.57;;;;;;;;;;5110483;28;20070;-73
2023/08/30 14:15:36;;;;;;;10.45;4.47;;;;;;;;;;5106491;28;20024;-73
2023/08/30 14:18:02;;;;;;;10.20;4.30;;;;;;;;;;5099217;27;20413;-73
2023/08/30 14:20:28;;;;;;;9.52;4.38;;;;;;;;;;5120167;27;20047;-73
2023/08/30 14:22:54;;;;;;;10.30;4.60;;;;;;;;;;5115323;27;20511;-73
2023/08/30 14:25:20;;;;;;;9.50;4.63;;;;;;;;;;5130215;27;20020;-73
2023/08/30 14:27:47;;;;;;;10.20;4.20;;;;;;;;;;5115401;28;20477;-73
2023/08/30 14:30:13;;;;;;;8.75;4.40;;;;;;;;;;5123275;27;20434;-73